createdAt,value
2023-03-29T00:00:16.852Z,98731.00
2023-03-29T00:02:48.806Z,98733.00
2023-03-29T00:05:25.523Z,98722.00
2023-03-29T00:07:54.406Z,98722.00
2023-03-29T00:10:24.208Z,98713.00
2023-03-29T00:12:52.734Z,98723.00
2023-03-29T06:24:16.557Z,98635.00
2023-03-29T06:26:45.205Z,98640.00
2023-03-29T06:29:12.752Z,98648.00
2023-03-29T06:31:40.984Z,98647.00
2023-03-29T06:34:08.434Z,98647.00
2023-03-29T06:36:35.813Z,98647.00
2023-03-29T06:39:04.095Z,98646.00
2023-03-29T06:41:31.680Z,98650.00
2023-03-29T06:43:59.110Z,98651.00
2023-03-29T06:46:27.211Z,98649.00
2023-03-29T06:48:54.571Z,98651.00
2023-03-29T06:51:23.554Z,98649.00
2023-03-29T06:53:50.976Z,98655.00
2023-03-29T06:56:18.365Z,98643.00
2023-03-29T06:58:47.076Z,98646.00
2023-03-29T07:01:14.510Z,98642.00
2023-03-29T07:03:44.776Z,98642.00
2023-03-29T07:06:15.488Z,98639.00
2023-03-29T07:08:47.525Z,98642.00
2023-03-29T07:11:17.944Z,98630.00
2023-03-29T07:13:46.294Z,98629.00
2023-03-29T07:16:14.293Z,98631.00
2023-03-29T07:18:44.343Z,98630.00
2023-03-29T07:21:13.363Z,98639.00
2023-03-29T07:23:41.103Z,98647.00
2023-03-29T07:26:09.946Z,98647.00
2023-03-29T07:28:39.549Z,98660.00
2023-03-29T07:31:11.726Z,98658.00
2023-03-29T07:33:39.952Z,98662.00
2023-03-29T07:36:08.630Z,98658.00
2023-03-29T07:38:37.005Z,98673.00
2023-03-29T07:41:08.088Z,98662.00
2023-03-29T07:43:35.852Z,98662.00
2023-03-29T07:46:07.214Z,98666.00
2023-03-29T07:48:37.212Z,98668.00
2023-03-29T07:51:06.422Z,98674.00
2023-03-29T07:53:33.832Z,98678.00
2023-03-29T07:56:01.824Z,98677.00
2023-03-29T07:58:29.718Z,98677.00
2023-03-29T08:01:00.666Z,98676.00
2023-03-29T08:03:28.979Z,98696.00
2023-03-29T08:05:57.002Z,98698.00
2023-03-29T08:08:24.513Z,98699.00
2023-03-29T08:10:52.930Z,98696.00
2023-03-29T08:13:20.514Z,98715.00
2023-03-29T08:15:48.941Z,98711.00
2023-03-29T08:18:16.431Z,98705.00
2023-03-29T08:20:44.377Z,98698.00
2023-03-29T08:23:11.897Z,98704.00
2023-03-29T08:25:39.304Z,98702.00
2023-03-29T08:28:06.926Z,98689.00
2023-03-29T08:30:34.655Z,98693.00
2023-03-29T08:33:02.685Z,98693.00
2023-03-29T08:35:30.093Z,98687.00
2023-03-29T08:37:57.607Z,98682.00
2023-03-29T08:40:30.092Z,98679.00
2023-03-29T08:42:59.920Z,98687.00
2023-03-29T08:45:57.336Z,98680.00
2023-03-29T08:48:44.188Z,98696.00
2023-03-29T08:51:36.773Z,98690.00
2023-03-29T08:54:25.119Z,98688.00
2023-03-29T08:57:00.357Z,98687.00
2023-03-29T08:59:34.652Z,98694.00
2023-03-29T09:02:05.824Z,98699.00
2023-03-29T09:04:39.083Z,98694.00
2023-03-29T09:07:11.242Z,98695.00
2023-03-29T09:09:38.812Z,98697.00
2023-03-29T09:12:48.937Z,98700.00
2023-03-29T09:15:31.129Z,98695.00
2023-03-29T09:18:19.374Z,98694.00
2023-03-29T09:21:33.465Z,98692.00
2023-03-29T09:24:40.888Z,98689.00
2023-03-29T09:27:27.449Z,98692.00
2023-03-29T09:30:32.188Z,98686.00
2023-03-29T09:33:24.965Z,98691.00
2023-03-29T09:36:17.312Z,98682.00
2023-03-29T09:38:51.074Z,98680.00
2023-03-29T09:41:49.129Z,98674.00
2023-03-29T09:44:38.048Z,98679.00
2023-03-29T09:48:06.584Z,98681.00
2023-03-29T09:50:47.402Z,98681.00
2023-03-29T09:53:21.489Z,98673.00
2023-03-29T09:55:52.056Z,98677.00
2023-03-29T09:58:24.718Z,98666.00
2023-03-29T10:00:53.218Z,98675.00
2023-03-29T10:03:29.657Z,98656.00
2023-03-29T10:06:02.760Z,98652.00
2023-03-29T10:08:46.337Z,98658.00
2023-03-29T10:11:33.085Z,98646.00
2023-03-29T10:14:37.142Z,98653.00
2023-03-29T10:17:24.200Z,98656.00
2023-03-29T10:20:04.847Z,98644.00
2023-03-29T10:22:37.983Z,98633.00
2023-03-29T10:25:17.325Z,98633.00
2023-03-29T10:27:47.987Z,98635.00
2023-03-29T10:30:26.225Z,98632.00
2023-03-29T10:33:00.097Z,98632.00
2023-03-29T10:35:41.722Z,98632.00
2023-03-29T10:38:18.786Z,98631.00
2023-03-29T10:40:53.280Z,98625.00
2023-03-29T10:43:35.203Z,98623.00
2023-03-29T10:46:33.078Z,98633.00
2023-03-29T10:49:18.318Z,98620.00
2023-03-29T10:51:49.484Z,98617.00
2023-03-29T10:54:22.517Z,98615.00
2023-03-29T10:56:57.734Z,98600.00
2023-03-29T11:00:01.379Z,98608.00
2023-03-29T11:03:06.101Z,98607.00
2023-03-29T11:06:26.500Z,98602.00
2023-03-29T11:09:23.534Z,98598.00
2023-03-29T11:12:34.759Z,98599.00
2023-03-29T11:16:04.964Z,98592.00
2023-03-29T11:19:07.270Z,98605.00
2023-03-29T11:22:19.874Z,98606.00
2023-03-29T11:25:42.289Z,98610.00
2023-03-29T11:28:45.767Z,98608.00
2023-03-29T11:31:38.837Z,98601.00
2023-03-29T11:35:08.014Z,98596.00
2023-03-29T11:38:19.198Z,98593.00
2023-03-29T11:41:19.968Z,98602.00
2023-03-29T11:44:02.783Z,98614.00
2023-03-29T11:47:20.754Z,98607.00
2023-03-29T11:50:00.904Z,98617.00
2023-03-29T11:52:43.008Z,98616.00
2023-03-29T11:55:26.564Z,98614.00
2023-03-29T11:58:22.532Z,98610.00
2023-03-29T12:01:00.664Z,98613.00
2023-03-29T12:04:24.866Z,98569.00
2023-03-29T12:07:23.180Z,98561.00
2023-03-29T12:10:16.695Z,98548.00
2023-03-29T12:13:19.166Z,98548.00
2023-03-29T12:15:59.951Z,98560.00
2023-03-29T12:18:43.119Z,98564.00
2023-03-29T12:21:21.393Z,98569.00
2023-03-29T12:23:50.680Z,98561.00
2023-03-29T12:26:46.375Z,98564.00
2023-03-29T12:30:02.677Z,98558.00
2023-03-29T12:33:22.216Z,98560.00
2023-03-29T12:36:49.004Z,98555.00
2023-03-29T12:39:20.790Z,98545.00
2023-03-29T12:41:53.601Z,98547.00
2023-03-29T12:44:24.710Z,98549.00
2023-03-29T12:46:58.801Z,98552.00
2023-03-29T12:49:38.267Z,98562.00
2023-03-29T12:52:36.208Z,98556.00
2023-03-29T12:55:48.316Z,98550.00
2023-03-29T12:58:40.141Z,98542.00
2023-03-29T13:01:32.174Z,98538.00
2023-03-29T13:04:17.823Z,98534.00
2023-03-29T13:07:03.460Z,98531.00
2023-03-29T13:09:55.124Z,98530.00
2023-03-29T13:12:46.123Z,98520.00
2023-03-29T13:15:19.284Z,98535.00
2023-03-29T13:18:48.777Z,98539.00
2023-03-29T13:22:10.056Z,98530.00
2023-03-29T13:25:06.267Z,98535.00
2023-03-29T13:28:05.302Z,98524.00
2023-03-29T13:31:01.858Z,98528.00
2023-03-29T13:34:31.123Z,98540.00
2023-03-29T13:37:54.276Z,98540.00
2023-03-29T13:40:40.539Z,98538.00
2023-03-29T13:43:22.439Z,98525.00
2023-03-29T13:45:58.547Z,98511.00
2023-03-29T13:48:35.214Z,98507.00
2023-03-29T13:51:18.964Z,98495.00
2023-03-29T13:55:13.277Z,98487.00
2023-03-29T13:57:56.023Z,98510.00
2023-03-29T14:00:37.172Z,98496.00
2023-03-29T14:03:13.753Z,98505.00
2023-03-29T14:05:56.493Z,98505.00
2023-03-29T14:08:37.505Z,98509.00
2023-03-29T14:11:08.169Z,98511.00
2023-03-29T14:13:35.805Z,98506.00
2023-03-29T14:16:10.630Z,98494.00
2023-03-29T14:18:42.038Z,98498.00
2023-03-29T14:21:14.566Z,98508.00
2023-03-29T14:23:47.986Z,98516.00
2023-03-29T14:26:30.613Z,98513.00
2023-03-29T14:29:02.005Z,98507.00
2023-03-29T14:31:37.918Z,98504.00
2023-03-29T14:34:16.056Z,98495.00
2023-03-29T14:36:49.396Z,98500.00
2023-03-29T14:39:23.396Z,98501.00
2023-03-29T14:41:57.070Z,98502.00
2023-03-29T14:44:31.979Z,98493.00
2023-03-29T14:47:01.877Z,98490.00
2023-03-29T14:49:29.983Z,98488.00
2023-03-29T14:51:58.258Z,98488.00
2023-03-29T14:54:33.752Z,98482.00
2023-03-29T14:57:07.309Z,98489.00
2023-03-29T14:59:56.455Z,98484.00
2023-03-29T15:02:32.829Z,98485.00
2023-03-29T15:05:25.649Z,98482.00
2023-03-29T15:07:56.351Z,98475.00
2023-03-29T15:10:24.349Z,98476.00
2023-03-29T15:12:52.041Z,98471.00
2023-03-29T15:15:20.016Z,98471.00
2023-03-29T15:17:52.291Z,98468.00
2023-03-29T15:20:31.681Z,98473.00
2023-03-29T15:23:09.635Z,98467.00
2023-03-29T15:25:49.485Z,98463.00
2023-03-29T15:28:55.886Z,98464.00
2023-03-29T15:31:42.039Z,98457.00
2023-03-29T15:34:25.146Z,98456.00
2023-03-29T15:36:54.067Z,98455.00
2023-03-29T15:39:21.627Z,98450.00
2023-03-29T15:41:52.955Z,98448.00
2023-03-29T15:44:43.736Z,98445.00
2023-03-29T15:47:12.705Z,98442.00
2023-03-29T15:49:40.619Z,98445.00
2023-03-29T15:52:08.128Z,98444.00
2023-03-29T15:54:37.274Z,98437.00
2023-03-29T15:57:12.586Z,98444.00
2023-03-29T15:59:40.254Z,98449.00
2023-03-29T16:02:12.242Z,98451.00
2023-03-29T16:04:39.700Z,98440.00
2023-03-29T16:07:17.666Z,98437.00
2023-03-29T16:09:46.320Z,98427.00
2023-03-29T16:12:16.395Z,98433.00
2023-03-29T16:14:43.808Z,98425.00
2023-03-29T16:17:11.684Z,98435.00
2023-03-29T16:19:39.234Z,98434.00
2023-03-29T16:22:07.665Z,98441.00
2023-03-29T16:24:36.259Z,98447.00
2023-03-29T16:27:04.145Z,98449.00
2023-03-29T16:29:32.005Z,98442.00
2023-03-29T16:32:00.231Z,98450.00
2023-03-29T16:34:27.873Z,98441.00
2023-03-29T16:36:55.350Z,98433.00
2023-03-29T16:39:22.796Z,98429.00
2023-03-29T16:41:50.553Z,98421.00
2023-03-29T16:44:23.570Z,98413.00
2023-03-29T16:46:54.451Z,98409.00
2023-03-29T16:49:22.508Z,98398.00
2023-03-29T16:51:49.909Z,98395.00
2023-03-29T16:54:18.993Z,98398.00
2023-03-29T16:56:47.238Z,98395.00
2023-03-29T16:59:15.409Z,98404.00
2023-03-29T17:01:43.222Z,98403.00
2023-03-29T17:04:11.644Z,98405.00
2023-03-29T17:06:39.228Z,98407.00
2023-03-29T17:09:07.427Z,98398.00
2023-03-29T17:11:35.026Z,98398.00
2023-03-29T17:14:02.956Z,98405.00
2023-03-29T17:16:30.549Z,98400.00
2023-03-29T17:19:01.456Z,98403.00
2023-03-29T17:21:29.943Z,98415.00
2023-03-29T17:23:57.556Z,98417.00
2023-03-29T17:26:25.052Z,98412.00
2023-03-29T17:28:52.651Z,98419.00
2023-03-29T17:31:20.130Z,98413.00
2023-03-29T17:33:47.741Z,98419.00
2023-03-29T17:36:15.944Z,98425.00
2023-03-29T17:38:43.406Z,98433.00
2023-03-29T17:41:11.209Z,98450.00
2023-03-29T17:43:38.627Z,98466.00
2023-03-29T17:46:06.612Z,98479.00
2023-03-29T17:48:34.686Z,98490.00
2023-03-29T17:51:02.272Z,98498.00
2023-03-29T17:53:29.976Z,98507.00
2023-03-29T17:55:57.405Z,98503.00
2023-03-29T17:58:24.901Z,98494.00
2023-03-29T18:00:52.363Z,98491.00
2023-03-29T18:03:20.094Z,98465.00
2023-03-29T18:05:48.066Z,98463.00
2023-03-29T18:08:16.902Z,98458.00
2023-03-29T18:10:44.378Z,98449.00
2023-03-29T18:13:14.027Z,98435.00
2023-03-29T18:15:44.125Z,98440.00
2023-03-29T18:18:11.705Z,98443.00
2023-03-29T18:20:39.136Z,98442.00
2023-03-29T18:23:06.629Z,98446.00
2023-03-29T18:25:34.170Z,98450.00
2023-03-29T18:28:01.552Z,98455.00
2023-03-29T18:30:28.984Z,98441.00
2023-03-29T18:32:56.542Z,98444.00
2023-03-29T18:35:24.050Z,98427.00
2023-03-29T18:37:52.299Z,98429.00
2023-03-29T18:40:24.757Z,98428.00
2023-03-29T18:42:52.828Z,98435.00
2023-03-29T18:45:21.454Z,98444.00
2023-03-29T18:47:50.960Z,98438.00
2023-03-29T18:50:18.888Z,98442.00
2023-03-29T18:52:46.281Z,98437.00
2023-03-29T18:55:13.668Z,98437.00
2023-03-29T18:57:41.529Z,98431.00
2023-03-29T19:00:13.342Z,98437.00
2023-03-29T19:02:42.025Z,98432.00
2023-03-29T19:05:10.901Z,98429.00
2023-03-29T19:07:38.856Z,98445.00
2023-03-29T19:10:08.464Z,98460.00
2023-03-29T19:12:36.398Z,98459.00
2023-03-29T19:15:04.458Z,98454.00
2023-03-29T19:17:32.215Z,98462.00
2023-03-29T19:19:59.731Z,98462.00
2023-03-29T19:22:27.228Z,98449.00
2023-03-29T19:24:54.609Z,98447.00
2023-03-29T19:27:22.124Z,98429.00
2023-03-29T19:29:49.745Z,98429.00
2023-03-29T19:32:17.165Z,98425.00
2023-03-29T19:34:44.559Z,98427.00
2023-03-29T19:37:12.166Z,98418.00
2023-03-29T19:39:41.128Z,98421.00
2023-03-29T19:42:08.591Z,98414.00
2023-03-29T19:44:38.330Z,98422.00
2023-03-29T19:47:06.668Z,98428.00
2023-03-29T19:49:36.704Z,98424.00
2023-03-29T19:52:05.078Z,98424.00
2023-03-29T19:54:32.927Z,98426.00
2023-03-29T19:57:00.392Z,98423.00
2023-03-29T19:59:28.170Z,98429.00
2023-03-29T20:01:57.007Z,98426.00
2023-03-29T20:04:25.320Z,98423.00
2023-03-29T20:06:52.742Z,98408.00
2023-03-29T20:09:20.315Z,98387.00
2023-03-29T20:11:47.806Z,98367.00
2023-03-29T20:14:15.599Z,98372.00
2023-03-29T20:16:44.178Z,98370.00
2023-03-29T20:19:14.171Z,98363.00
2023-03-29T20:21:41.688Z,98367.00
2023-03-29T20:24:09.845Z,98367.00
2023-03-29T20:26:37.413Z,98354.00
2023-03-29T20:29:04.843Z,98356.00
2023-03-29T20:31:32.307Z,98352.00
2023-03-29T20:33:59.944Z,98353.00
2023-03-29T20:36:30.876Z,98357.00
2023-03-29T20:38:59.378Z,98351.00
2023-03-29T20:41:27.010Z,98350.00
2023-03-29T20:44:00.013Z,98346.00
2023-03-29T20:46:33.558Z,98334.00
2023-03-29T20:49:09.032Z,98349.00
2023-03-29T20:51:38.654Z,98340.00
2023-03-29T20:54:07.788Z,98341.00
2023-03-29T20:56:42.371Z,98347.00
2023-03-29T20:59:10.954Z,98339.00
2023-03-29T21:01:42.498Z,98338.00
2023-03-29T21:04:11.110Z,98338.00
2023-03-29T21:06:41.495Z,98333.00
2023-03-29T21:09:08.923Z,98326.00
2023-03-29T21:11:36.335Z,98327.00
2023-03-29T21:14:04.249Z,98320.00
2023-03-29T21:16:34.040Z,98322.00
2023-03-29T21:19:01.606Z,98320.00
2023-03-29T21:21:30.162Z,98326.00
2023-03-29T21:23:57.565Z,98312.00
2023-03-29T21:26:24.939Z,98316.00
2023-03-29T21:28:52.591Z,98318.00
2023-03-29T21:31:20.156Z,98322.00
2023-03-29T21:33:47.599Z,98313.00
2023-03-29T21:36:15.185Z,98315.00
2023-03-29T21:38:42.672Z,98311.00
2023-03-29T21:41:12.162Z,98312.00
2023-03-29T21:43:40.146Z,98308.00
2023-03-29T21:46:08.573Z,98300.00
2023-03-29T21:48:36.666Z,98294.00
2023-03-29T21:51:06.591Z,98300.00
2023-03-29T21:53:34.629Z,98296.00
2023-03-29T21:56:02.675Z,98289.00
2023-03-29T21:58:30.171Z,98289.00
2023-03-29T22:00:57.622Z,98289.00
2023-03-29T22:03:25.105Z,98285.00
2023-03-29T22:06:03.069Z,98284.00
2023-03-29T22:08:31.456Z,98274.00
2023-03-29T22:10:58.862Z,98267.00
2023-03-29T22:13:28.987Z,98282.00
2023-03-29T22:16:03.866Z,98273.00
2023-03-29T22:18:44.118Z,98268.00
2023-03-29T22:21:22.797Z,98279.00
2023-03-29T22:23:56.084Z,98275.00
2023-03-29T22:26:29.978Z,98250.00
2023-03-29T22:28:59.887Z,98267.00
2023-03-29T22:31:29.521Z,98251.00
2023-03-29T22:33:58.500Z,98258.00
2023-03-29T22:36:31.155Z,98256.00
2023-03-29T22:38:59.136Z,98249.00
2023-03-29T22:41:28.303Z,98251.00
2023-03-29T22:43:59.524Z,98247.00
2023-03-29T22:46:27.365Z,98248.00
2023-03-29T22:48:55.041Z,98241.00
2023-03-29T22:51:22.505Z,98241.00
2023-03-29T22:53:50.046Z,98239.00
2023-03-29T22:56:18.459Z,98245.00
2023-03-29T22:58:46.987Z,98247.00
2023-03-29T23:01:14.491Z,98240.00
2023-03-29T23:03:42.032Z,98235.00
2023-03-29T23:06:09.512Z,98222.00
2023-03-29T23:08:37.230Z,98221.00
2023-03-29T23:11:05.545Z,98212.00
2023-03-29T23:13:33.721Z,98219.00
2023-03-29T23:16:02.530Z,98219.00
2023-03-29T23:18:35.007Z,98213.00
2023-03-29T23:21:05.276Z,98201.00
2023-03-29T23:23:33.703Z,98209.00
2023-03-29T23:26:02.566Z,98213.00
2023-03-29T23:28:30.789Z,98203.00
2023-03-29T23:31:11.613Z,98199.00
2023-03-29T23:33:43.199Z,98191.00
2023-03-29T23:36:16.855Z,98195.00
2023-03-29T23:38:46.988Z,98186.00
2023-03-29T23:41:17.798Z,98183.00
2023-03-29T23:43:47.281Z,98174.00
2023-03-29T23:46:19.042Z,98176.00
2023-03-29T23:48:50.871Z,98180.00
2023-03-29T23:51:23.366Z,98166.00
2023-03-29T23:53:51.484Z,98172.00
